Time;durP1;ratioP1;P1;durP2;ratioP2;P2;SDS_P1;SDS_P2;PMS_P1;PMS_P2;Temp;Humidity;BMP_temperature;BMP_pressure;BME280_temperature;BME280_humidity;BME280_pressure;Samples;Min_cycle;Max_cycle;Signal;HPM_P1;HPM_P2
2023/07/03 00:02:20;;;;;;;9.90;3.38;;;16.00;1.00;;;;;;5095416;28;20048;-62
2023/07/03 00:04:46;;;;;;;6.53;3.92;;;15.90;1.00;;;;;;5110743;28;20480;-63
2023/07/03 00:07:13;;;;;;;6.82;3.33;;;16.00;1.00;;;;;;5095046;28;20036;-63
2023/07/03 00:09:39;;;;;;;11.77;3.97;;;15.90;1.00;;;;;;5095356;28;20036;-63
2023/07/03 00:12:04;;;;;;;7.75;3.30;;;15.90;1.00;;;;;;5095183;28;20066;-62
2023/07/03 00:14:30;;;;;;;10.18;4.20;;;15.90;1.00;;;;;;5095169;28;20513;-62
2023/07/03 00:16:56;;;;;;;13.88;4.07;;;15.90;1.00;;;;;;5093941;28;20479;-63
2023/07/03 00:19:26;;;;;;;12.13;4.25;;;15.90;1.00;;;;;;5095126;28;20119;-63
2023/07/03 00:21:52;;;;;;;10.95;3.92;;;15.90;1.00;;;;;;5095125;28;20047;-62
2023/07/03 00:24:18;;;;;;;10.82;4.13;;;15.90;1.00;;;;;;5094653;28;20052;-62
2023/07/03 00:26:44;;;;;;;6.93;3.83;;;15.80;1.00;;;;;;5094683;28;20479;-63
2023/07/03 00:29:09;;;;;;;10.40;4.05;;;15.80;1.00;;;;;;5094917;28;20043;-62
2023/07/03 00:31:35;;;;;;;9.00;3.85;;;15.80;1.00;;;;;;5094558;28;20036;-63
2023/07/03 00:34:01;;;;;;;7.45;3.78;;;15.70;1.00;;;;;;5094880;28;20100;-62
2023/07/03 00:36:26;;;;;;;7.75;3.78;;;15.70;1.00;;;;;;5094686;28;20040;-62
2023/07/03 00:38:57;;;;;;;6.03;3.53;;;15.70;1.00;;;;;;5094724;28;20130;-63
2023/07/03 00:41:24;;;;;;;13.88;4.43;;;15.70;1.00;;;;;;5094422;28;20070;-62
2023/07/03 00:43:49;;;;;;;9.52;4.32;;;15.70;1.00;;;;;;5093378;28;20040;-62
2023/07/03 00:46:15;;;;;;;8.73;3.95;;;15.70;1.00;;;;;;5093252;28;20042;-63
2023/07/03 00:48:41;;;;;;;8.98;4.28;;;15.70;1.00;;;;;;5094560;28;20058;-63
2023/07/03 00:51:10;;;;;;;14.52;3.88;;;15.70;1.00;;;;;;5094450;28;20038;-62
2023/07/03 00:53:36;;;;;;;7.95;4.00;;;16.30;1.00;;;;;;5094392;28;20051;-62
2023/07/03 00:56:03;;;;;;;9.23;4.45;;;15.60;1.00;;;;;;5094365;28;20032;-63
2023/07/03 00:58:29;;;;;;;15.45;4.90;;;15.60;1.00;;;;;;5094339;28;20039;-63
2023/07/03 01:01:07;;;;;;;10.30;4.55;;;15.60;1.00;;;;;;5094219;28;20525;-64
2023/07/03 01:03:42;;;;;;;12.90;3.95;;;15.60;1.00;;;;;;5093969;28;20048;-63
2023/07/03 01:06:13;;;;;;;10.95;4.13;;;15.60;1.00;;;;;;5094235;28;20042;-63
2023/07/03 01:08:40;;;;;;;12.55;4.22;;;15.60;1.00;;;;;;5092049;28;20557;-63
2023/07/03 01:11:07;;;;;;;11.60;4.20;;;15.60;1.00;;;;;;5094076;28;20039;-63
2023/07/03 01:13:34;;;;;;;11.88;4.90;;;15.60;1.00;;;;;;5093759;28;20055;-63
2023/07/03 01:16:03;;;;;;;10.40;4.80;;;15.60;1.00;;;;;;5093981;28;20399;-62
2023/07/03 01:18:29;;;;;;;17.92;4.03;;;15.60;1.00;;;;;;5093959;28;20036;-62
2023/07/03 01:21:16;;;;;;;16.92;4.05;;;15.60;1.00;;;;;;5093891;28;20043;-62
2023/07/03 01:23:56;;;;;;;10.23;4.35;;;15.60;1.00;;;;;;5092038;28;20055;-62
2023/07/03 01:26:23;;;;;;;9.65;4.00;;;15.60;1.00;;;;;;5093834;28;20048;-63
2023/07/03 01:28:57;;;;;;;7.32;3.88;;;15.60;1.00;;;;;;5093740;28;20043;-62
2023/07/03 01:31:24;;;;;;;7.65;3.35;;;15.60;1.00;;;;;;5093756;28;20494;-65
2023/07/03 01:33:52;;;;;;;18.98;4.38;;;15.60;1.00;;;;;;5093722;28;20505;-62
2023/07/03 01:36:18;;;;;;;9.13;4.22;;;15.60;1.00;;;;;;5093347;28;20063;-62
2023/07/03 01:38:45;;;;;;;9.63;4.15;;;15.60;1.00;;;;;;5093326;28;20036;-62
2023/07/03 01:41:14;;;;;;;10.02;4.05;;;15.60;1.00;;;;;;5092072;28;20036;-62
2023/07/03 01:43:40;;;;;;;12.65;4.07;;;15.60;1.00;;;;;;5093136;28;20085;-62
2023/07/03 01:46:08;;;;;;;17.00;4.75;;;15.60;1.00;;;;;;5093161;28;20036;-62
2023/07/03 01:48:34;;;;;;;18.70;4.25;;;15.60;1.00;;;;;;5093051;28;20088;-62
2023/07/03 01:51:03;;;;;;;12.18;4.07;;;15.60;1.00;;;;;;5091930;28;20036;-62
2023/07/03 01:53:38;;;;;;;9.73;3.72;;;15.60;1.00;;;;;;5093394;28;20404;-62
2023/07/03 01:56:11;;;;;;;12.15;4.28;;;15.60;1.00;;;;;;5093318;28;20317;-62
2023/07/03 01:58:47;;;;;;;11.52;4.22;;;15.60;1.00;;;;;;5092943;28;20040;-62
2023/07/03 02:02:01;;;;;;;12.13;4.05;;;15.60;1.00;;;;;;5093289;28;20036;-62
2023/07/03 02:04:41;;;;;;;12.45;4.05;;;15.60;1.00;;;;;;5087212;28;20055;-62
2023/07/03 02:07:09;;;;;;;10.63;3.95;;;15.60;1.00;;;;;;5093159;28;20394;-62
2023/07/03 02:09:35;;;;;;;8.75;4.15;;;15.60;1.00;;;;;;5091833;28;20206;-63
2023/07/03 02:12:05;;;;;;;10.50;3.80;;;15.60;1.00;;;;;;5091926;28;20040;-62
2023/07/03 02:14:34;;;;;;;14.80;4.72;;;15.60;1.00;;;;;;5092800;28;20044;-62
2023/07/03 02:17:01;;;;;;;17.50;4.38;;;15.60;1.00;;;;;;5092786;28;20044;-62
2023/07/03 02:19:31;;;;;;;11.35;3.85;;;15.70;1.00;;;;;;5092795;28;20074;-63
2023/07/03 02:21:57;;;;;;;12.70;4.72;;;15.70;1.00;;;;;;5093191;28;20492;-63
2023/07/03 02:24:23;;;;;;;11.30;3.42;;;15.70;1.00;;;;;;5092466;28;20056;-62
2023/07/03 02:26:50;;;;;;;11.35;3.92;;;15.70;1.00;;;;;;5092667;28;20051;-63
2023/07/03 02:29:16;;;;;;;17.23;5.15;;;15.70;1.00;;;;;;5093021;28;20032;-62
2023/07/03 02:31:42;;;;;;;13.73;3.78;;;15.70;1.00;;;;;;5092909;28;20116;-63
2023/07/03 02:34:08;;;;;;;10.07;4.05;;;15.70;1.00;;;;;;5092927;28;20036;-63
2023/07/03 02:36:35;;;;;;;10.02;3.75;;;15.70;1.00;;;;;;5092832;28;20044;-62
2023/07/03 02:39:01;;;;;;;8.88;3.90;;;15.70;1.00;;;;;;5092563;28;20055;-62
2023/07/03 02:41:28;;;;;;;16.98;4.03;;;15.60;1.00;;;;;;5108314;28;20036;-62
2023/07/03 02:43:53;;;;;;;10.80;4.18;;;15.70;1.00;;;;;;5092715;28;20069;-63
2023/07/03 02:46:19;;;;;;;7.78;3.33;;;15.70;1.00;;;;;;5092765;28;20111;-63
2023/07/03 02:48:45;;;;;;;12.43;3.53;;;15.70;1.00;;;;;;5092740;28;20036;-63
2023/07/03 02:51:11;;;;;;;11.48;3.90;;;15.70;1.00;;;;;;5091241;28;20048;-62
2023/07/03 02:53:37;;;;;;;7.03;2.72;;;15.70;1.00;;;;;;5092695;28;20051;-63
2023/07/03 02:56:02;;;;;;;11.48;3.40;;;15.70;1.00;;;;;;5092692;28;20395;-63
2023/07/03 02:58:30;;;;;;;8.10;2.88;;;15.70;1.00;;;;;;5092625;28;20036;-63
2023/07/03 03:00:56;;;;;;;9.63;3.00;;;15.60;1.00;;;;;;5091377;28;20483;-63
2023/07/03 03:03:23;;;;;;;7.90;2.75;;;15.60;1.00;;;;;;5092281;28;20034;-62
2023/07/03 03:05:48;;;;;;;9.73;3.25;;;15.60;1.00;;;;;;5092543;28;20441;-63
2023/07/03 03:08:14;;;;;;;10.10;2.63;;;15.60;1.00;;;;;;5074466;28;20054;-63
2023/07/03 03:10:40;;;;;;;6.13;2.97;;;15.60;1.00;;;;;;5092244;28;20071;-63
2023/07/03 03:13:05;;;;;;;7.30;3.15;;;15.60;1.00;;;;;;5092535;28;20429;-63
2023/07/03 03:15:34;;;;;;;7.75;2.83;;;15.60;1.00;;;;;;5092520;28;20487;-63
2023/07/03 03:18:00;;;;;;;7.45;2.83;;;15.60;1.00;;;;;;5092227;28;20044;-62
2023/07/03 03:20:26;;;;;;;8.55;3.03;;;15.50;1.00;;;;;;5092508;28;20052;-63
2023/07/03 03:22:51;;;;;;;8.98;2.78;;;15.50;1.00;;;;;;5092481;28;20036;-63
2023/07/03 03:25:17;;;;;;;7.20;2.47;;;15.50;1.00;;;;;;5092027;28;20121;-63
2023/07/03 03:27:42;;;;;;;13.32;2.85;;;15.40;1.00;;;;;;5092390;28;20052;-63
2023/07/03 03:30:09;;;;;;;4.90;2.53;;;15.40;1.00;;;;;;5090941;28;20089;-63
2023/07/03 03:32:34;;;;;;;6.40;2.75;;;15.40;1.00;;;;;;5094789;28;20036;-63
2023/07/03 03:35:01;;;;;;;7.15;2.40;;;15.40;1.00;;;;;;5095936;28;20101;-63
2023/07/03 03:37:27;;;;;;;4.78;2.28;;;15.40;1.00;;;;;;5095913;28;20087;-62
2023/07/03 03:39:53;;;;;;;6.50;2.40;;;15.30;1.00;;;;;;5095985;28;20495;-63
2023/07/03 03:42:18;;;;;;;7.47;2.30;;;15.80;1.00;;;;;;5095897;28;20083;-63
2023/07/03 03:44:44;;;;;;;9.07;2.88;;;15.20;1.00;;;;;;5095484;28;20483;-63
2023/07/03 03:47:10;;;;;;;7.95;2.60;;;15.20;1.00;;;;;;5095508;28;20039;-62
2023/07/03 03:49:36;;;;;;;7.95;2.42;;;15.10;1.00;;;;;;5095572;28;20089;-63
2023/07/03 03:52:02;;;;;;;6.07;2.30;;;15.10;1.00;;;;;;5095755;28;20028;-63
2023/07/03 03:54:27;;;;;;;8.23;2.63;;;15.10;1.00;;;;;;5095658;28;20032;-65
2023/07/03 03:56:53;;;;;;;5.38;2.03;;;15.10;1.00;;;;;;5095603;28;20040;-63
2023/07/03 03:59:21;;;;;;;6.03;2.40;;;15.10;1.00;;;;;;5095327;28;20044;-63
2023/07/03 04:01:48;;;;;;;4.38;2.03;;;15.00;1.00;;;;;;5095521;28;20040;-62
2023/07/03 04:04:14;;;;;;;4.43;1.90;;;15.70;1.00;;;;;;5094107;28;20051;-63
2023/07/03 04:06:39;;;;;;;5.43;2.63;;;15.70;1.00;;;;;;5095157;28;20483;-62
2023/07/03 04:09:07;;;;;;;8.13;2.22;;;15.00;1.00;;;;;;5095408;28;20028;-63
2023/07/03 04:11:33;;;;;;;5.93;1.90;;;15.00;1.00;;;;;;5095343;28;20118;-63
2023/07/03 04:13:59;;;;;;;5.03;1.60;;;14.80;1.00;;;;;;5094915;28;20036;-62
2023/07/03 04:16:26;;;;;;;10.70;1.52;;;14.90;1.00;;;;;;5095175;28;20043;-62
2023/07/03 04:18:52;;;;;;;8.02;2.03;;;14.90;1.00;;;;;;5095176;28;20040;-63
2023/07/03 04:21:18;;;;;;;7.28;2.33;;;14.90;1.00;;;;;;5095147;28;20485;-62
2023/07/03 04:23:43;;;;;;;7.47;2.20;;;14.90;1.00;;;;;;5094754;28;20052;-62
2023/07/03 04:26:09;;;;;;;11.02;2.33;;;14.90;1.00;;;;;;5095046;28;20060;-63
2023/07/03 04:28:35;;;;;;;3.67;1.45;;;14.90;1.00;;;;;;5094984;28;20398;-63
2023/07/03 04:31:02;;;;;;;7.03;2.05;;;15.00;1.00;;;;;;5094861;28;20039;-63
2023/07/03 04:33:28;;;;;;;9.20;1.85;;;15.00;1.00;;;;;;5094719;28;20392;-63
2023/07/03 04:35:54;;;;;;;6.68;1.42;;;14.90;1.00;;;;;;5094811;28;20043;-63
2023/07/03 04:38:23;;;;;;;6.07;1.88;;;15.00;1.00;;;;;;5094784;28;20448;-63
2023/07/03 04:40:50;;;;;;;5.35;1.73;;;15.00;1.00;;;;;;5093562;28;20051;-62
2023/07/03 04:43:15;;;;;;;5.60;1.80;;;15.00;1.00;;;;;;5094763;28;20411;-62
2023/07/03 04:45:47;;;;;;;5.32;1.92;;;15.00;1.00;;;;;;5094223;28;20028;-62
2023/07/03 04:48:14;;;;;;;7.13;2.13;;;15.00;1.00;;;;;;5094614;28;20380;-63
2023/07/03 04:50:39;;;;;;;3.33;1.70;;;15.10;1.00;;;;;;5094289;28;20032;-63
2023/07/03 04:53:05;;;;;;;6.07;1.60;;;15.10;1.00;;;;;;5093197;28;20044;-63
2023/07/03 04:55:32;;;;;;;13.18;1.75;;;15.10;1.00;;;;;;5094030;28;20047;-62
2023/07/03 04:58:02;;;;;;;9.57;2.05;;;15.20;1.00;;;;;;5094064;28;20130;-62
2023/07/03 05:00:28;;;;;;;8.00;1.77;;;15.30;1.00;;;;;;5094289;28;20122;-62
2023/07/03 05:02:58;;;;;;;8.23;1.70;;;15.30;1.00;;;;;;5109596;28;20143;-62
2023/07/03 05:05:25;;;;;;;7.15;2.20;;;15.40;1.00;;;;;;5094008;28;20440;-61
2023/07/03 05:07:51;;;;;;;4.70;1.45;;;15.40;1.00;;;;;;5094154;28;20080;-62
2023/07/03 05:10:17;;;;;;;5.15;1.58;;;15.50;1.00;;;;;;5094168;28;20096;-62
2023/07/03 05:12:44;;;;;;;7.65;1.65;;;15.50;1.00;;;;;;5094009;28;20040;-62
2023/07/03 05:15:11;;;;;;;3.60;1.52;;;15.60;1.00;;;;;;5094058;28;20392;-62
2023/07/03 05:17:38;;;;;;;3.60;1.67;;;15.60;1.00;;;;;;5093973;28;20115;-62
2023/07/03 05:20:14;;;;;;;4.88;1.88;;;15.70;1.00;;;;;;5093625;28;20093;-63
2023/07/03 05:22:42;;;;;;;6.30;1.85;;;15.90;1.00;;;;;;5093659;28;20044;-66
2023/07/03 05:25:09;;;;;;;11.02;1.83;;;16.00;1.00;;;;;;5093444;28;20056;-62
2023/07/03 05:27:35;;;;;;;2.08;1.25;;;15.90;1.00;;;;;;5093769;28;20043;-63
2023/07/03 05:30:03;;;;;;;8.25;1.60;;;15.90;1.00;;;;;;5093865;28;20035;-63
2023/07/03 05:32:28;;;;;;;7.00;1.42;;;15.90;1.00;;;;;;5093755;28;20055;-63
2023/07/03 05:34:54;;;;;;;2.92;1.40;;;16.00;1.00;;;;;;5093705;28;20039;-62
2023/07/03 05:37:20;;;;;;;6.57;1.77;;;16.00;1.00;;;;;;5092292;28;20032;-64
2023/07/03 05:39:48;;;;;;;5.85;1.38;;;16.10;1.00;;;;;;5092015;28;20044;-62
2023/07/03 05:42:15;;;;;;;5.78;1.48;;;16.20;1.00;;;;;;5093526;28;20047;-63
2023/07/03 05:44:40;;;;;;;5.88;1.75;;;16.30;1.00;;;;;;5093432;28;20367;-63
2023/07/03 05:47:09;;;;;;;6.03;1.95;;;17.10;1.00;;;;;;5093414;28;20032;-63
2023/07/03 05:49:34;;;;;;;7.80;1.65;;;16.30;1.00;;;;;;5093366;28;20075;-62
2023/07/03 05:52:00;;;;;;;5.03;1.67;;;16.30;1.00;;;;;;5108827;28;20424;-62
2023/07/03 05:54:25;;;;;;;4.15;1.40;;;16.30;1.00;;;;;;5092685;28;20040;-63
2023/07/03 05:56:59;;;;;;;4.15;1.73;;;16.20;1.00;;;;;;5093314;28;20036;-63
2023/07/03 05:59:25;;;;;;;4.88;1.75;;;16.40;1.00;;;;;;5093278;28;20044;-63
2023/07/03 06:01:53;;;;;;;10.38;2.20;;;16.40;1.00;;;;;;5093048;28;20040;-66
2023/07/03 06:04:19;;;;;;;6.47;1.70;;;16.50;1.00;;;;;;5092805;28;20047;-63
2023/07/03 06:06:44;;;;;;;9.32;1.60;;;16.30;1.00;;;;;;5092892;28;20047;-63
2023/07/03 06:09:10;;;;;;;4.15;1.88;;;16.30;1.00;;;;;;5093055;28;20383;-62
2023/07/03 06:11:35;;;;;;;6.63;1.80;;;16.50;1.00;;;;;;5093051;28;20032;-63
2023/07/03 06:14:01;;;;;;;5.30;1.75;;;16.60;1.00;;;;;;5092688;28;20071;-65
2023/07/03 06:16:29;;;;;;;9.45;2.28;;;16.70;1.00;;;;;;5108462;28;20129;-63
2023/07/03 06:18:55;;;;;;;5.82;1.58;;;16.80;1.00;;;;;;5092981;28;20075;-62
2023/07/03 06:21:20;;;;;;;6.90;1.85;;;17.00;1.00;;;;;;5093040;28;20071;-63
2023/07/03 06:23:46;;;;;;;6.40;1.70;;;17.10;1.00;;;;;;5092646;28;20056;-63
2023/07/03 06:26:11;;;;;;;5.95;2.20;;;17.60;1.00;;;;;;5092944;28;20108;-62
2023/07/03 06:28:37;;;;;;;6.07;1.70;;;18.00;1.00;;;;;;5092650;28;20032;-63
2023/07/03 06:31:02;;;;;;;4.00;1.67;;;17.60;1.00;;;;;;5092886;28;20479;-63
2023/07/03 06:33:28;;;;;;;6.63;1.90;;;17.70;1.00;;;;;;5092797;28;20035;-63
2023/07/03 06:35:54;;;;;;;5.57;1.92;;;17.60;1.00;;;;;;5092792;28;20040;-63
2023/07/03 06:38:20;;;;;;;10.18;1.95;;;17.50;1.00;;;;;;5092850;28;20047;-63
2023/07/03 06:40:58;;;;;;;5.70;1.65;;;17.50;1.00;;;;;;5092482;28;20131;-63
2023/07/03 06:43:24;;;;;;;7.45;1.58;;;17.50;1.00;;;;;;5092801;28;20122;-63
2023/07/03 06:45:49;;;;;;;9.50;1.67;;;17.50;1.00;;;;;;5092746;28;20123;-63
2023/07/03 06:48:15;;;;;;;3.58;1.10;;;17.50;1.00;;;;;;5092672;28;20036;-63
2023/07/03 06:50:40;;;;;;;7.30;1.98;;;17.40;1.00;;;;;;5092686;28;20365;-63
2023/07/03 06:53:06;;;;;;;6.57;1.33;;;17.30;1.00;;;;;;5092342;28;20040;-63
2023/07/03 06:55:31;;;;;;;5.28;1.75;;;17.30;1.00;;;;;;5092543;28;20097;-63
2023/07/03 06:57:58;;;;;;;4.93;1.73;;;17.30;1.00;;;;;;5092661;28;20475;-63
2023/07/03 07:00:24;;;;;;;5.53;2.05;;;17.30;1.00;;;;;;5092808;28;20079;-63
2023/07/03 07:02:49;;;;;;;3.88;1.20;;;17.20;1.00;;;;;;5092612;28;20447;-62
2023/07/03 07:05:15;;;;;;;6.40;1.63;;;17.10;1.00;;;;;;5092334;28;20451;-62
2023/07/03 07:07:40;;;;;;;5.20;1.80;;;16.80;1.00;;;;;;5110838;28;20487;-61
2023/07/03 07:10:07;;;;;;;3.00;1.25;;;16.40;1.00;;;;;;5112077;28;20111;-61
2023/07/03 07:12:32;;;;;;;4.15;1.63;;;16.20;1.00;;;;;;5096248;28;20063;-62
2023/07/03 07:14:58;;;;;;;6.20;1.80;;;16.00;1.00;;;;;;5096280;28;20036;-62
2023/07/03 07:17:23;;;;;;;7.47;1.85;;;15.90;1.00;;;;;;5095902;28;20498;-62
2023/07/03 07:19:49;;;;;;;7.85;1.83;;;15.90;1.00;;;;;;5096186;28;20032;-62
2023/07/03 07:22:15;;;;;;;6.20;1.85;;;15.80;1.00;;;;;;5095809;28;20468;-62
2023/07/03 07:24:40;;;;;;;3.63;1.85;;;15.80;1.00;;;;;;5095514;28;20109;-62
2023/07/03 07:27:07;;;;;;;4.97;1.90;;;15.80;1.00;;;;;;5095977;28;20036;-62
2023/07/03 07:29:34;;;;;;;6.22;2.22;;;15.80;1.00;;;;;;5094516;28;20086;-62
2023/07/03 07:31:59;;;;;;;6.93;1.33;;;16.00;1.00;;;;;;5094528;28;20466;-62
2023/07/03 07:34:25;;;;;;;4.75;1.75;;;16.20;1.00;;;;;;5094609;28;20076;-61
2023/07/03 07:36:51;;;;;;;3.90;1.60;;;16.40;1.00;;;;;;5094449;28;20076;-61
2023/07/03 07:39:19;;;;;;;4.40;1.70;;;16.70;1.00;;;;;;5095703;28;20036;-62
2023/07/03 07:41:45;;;;;;;6.30;1.80;;;16.90;1.00;;;;;;5094633;28;20050;-62
2023/07/03 07:44:11;;;;;;;4.43;1.65;;;17.20;1.00;;;;;;5095861;28;20040;-62
2023/07/03 07:46:37;;;;;;;4.78;1.50;;;17.60;1.00;;;;;;5095788;28;20533;-62
2023/07/03 07:49:03;;;;;;;5.35;2.25;;;17.80;1.00;;;;;;5095434;28;20048;-62
2023/07/03 07:51:29;;;;;;;8.02;1.98;;;17.70;1.00;;;;;;5094507;28;20047;-61
2023/07/03 07:53:56;;;;;;;6.80;2.03;;;17.70;1.00;;;;;;5095655;28;20032;-62
2023/07/03 07:56:23;;;;;;;2.35;1.17;;;17.50;1.00;;;;;;5095602;28;20040;-62
2023/07/03 07:58:49;;;;;;;2.75;1.10;;;18.10;1.00;;;;;;5095531;28;20076;-62
2023/07/03 08:01:15;;;;;;;4.90;1.52;;;17.40;1.00;;;;;;5095068;28;20044;-62
2023/07/03 08:03:43;;;;;;;5.20;1.75;;;17.40;1.00;;;;;;5095287;28;20032;-63
2023/07/03 08:06:09;;;;;;;6.40;2.00;;;17.10;1.00;;;;;;5094955;28;20089;-62
2023/07/03 08:08:36;;;;;;;5.28;1.48;;;17.00;1.00;;;;;;5095191;28;20388;-61
2023/07/03 08:11:03;;;;;;;2.92;0.98;;;16.80;1.00;;;;;;5095197;28;20044;-62
2023/07/03 08:13:31;;;;;;;12.75;1.63;;;16.20;1.00;;;;;;5094864;28;20040;-61
2023/07/03 08:15:57;;;;;;;4.93;1.25;;;15.80;1.00;;;;;;5095052;28;20472;-61
2023/07/03 08:18:23;;;;;;;3.28;1.00;;;15.50;1.00;;;;;;5094714;28;20036;-61
2023/07/03 08:20:50;;;;;;;2.35;1.05;;;15.20;1.00;;;;;;5094802;28;20046;-61
2023/07/03 08:23:16;;;;;;;8.80;1.38;;;15.10;1.00;;;;;;5094973;28;20454;-61
2023/07/03 08:25:42;;;;;;;3.90;1.27;;;15.00;1.00;;;;;;5095075;28;20048;-61
2023/07/03 08:28:09;;;;;;;3.72;1.23;;;15.00;1.00;;;;;;5095029;28;20387;-61
2023/07/03 08:30:36;;;;;;;2.75;1.10;;;15.00;1.00;;;;;;5093355;28;20048;-61
2023/07/03 08:33:02;;;;;;;5.50;1.30;;;15.00;1.00;;;;;;5094995;28;20078;-61
2023/07/03 08:35:27;;;;;;;2.03;1.10;;;15.00;1.00;;;;;;5093433;28;20039;-62
2023/07/03 08:37:53;;;;;;;9.90;1.90;;;15.10;1.00;;;;;;5094650;28;20532;-62
2023/07/03 08:40:20;;;;;;;5.90;1.27;;;16.00;1.00;;;;;;5094634;28;20391;-61
2023/07/03 08:42:57;;;;;;;8.07;1.50;;;15.70;8.50;;;;;;5094617;28;20044;-61
2023/07/03 08:45:42;;;;;;;5.97;1.65;;;15.90;1.00;;;;;;5094435;28;20055;-62
2023/07/03 08:48:15;;;;;;;3.25;0.85;;;16.00;1.00;;;;;;5094512;28;20040;-61
2023/07/03 08:50:48;;;;;;;2.83;1.45;;;16.00;1.00;;;;;;5094083;28;20040;-61
2023/07/03 08:53:18;;;;;;;2.15;1.13;;;16.10;1.00;;;;;;5094301;28;20074;-62
2023/07/03 08:56:04;;;;;;;4.00;1.60;;;16.10;1.00;;;;;;5094282;28;20391;-62
2023/07/03 08:58:29;;;;;;;3.03;1.10;;;16.10;1.00;;;;;;5094247;28;20421;-62
2023/07/03 09:01:36;;;;;;;2.10;1.15;;;16.10;1.00;;;;;;5094237;28;20177;-61
2023/07/03 09:04:23;;;;;;;2.88;1.23;;;16.00;1.00;;;;;;5094080;28;20036;-62
2023/07/03 09:06:55;;;;;;;3.10;1.27;;;16.00;1.00;;;;;;5094101;28;20040;-62
2023/07/03 09:09:42;;;;;;;3.80;1.13;;;16.10;1.00;;;;;;5094003;28;20048;-64
2023/07/03 09:12:22;;;;;;;3.88;1.40;;;16.30;1.00;;;;;;5093975;28;20047;-61
2023/07/03 09:15:12;;;;;;;4.67;1.47;;;16.30;1.00;;;;;;5094039;28;20137;-61
2023/07/03 09:17:40;;;;;;;3.30;1.20;;;16.40;1.00;;;;;;5092063;28;20286;-61
2023/07/03 09:20:06;;;;;;;1.95;0.95;;;16.50;1.00;;;;;;5093879;28;20044;-61
2023/07/03 09:22:46;;;;;;;7.32;1.48;;;16.50;1.00;;;;;;5093821;28;20202;-61
2023/07/03 09:25:21;;;;;;;4.53;1.65;;;16.60;1.00;;;;;;5093380;28;20051;-61
2023/07/03 09:27:50;;;;;;;3.95;1.23;;;16.40;1.00;;;;;;5109129;28;20070;-61
2023/07/03 09:30:16;;;;;;;4.45;1.42;;;16.40;1.00;;;;;;5092956;28;20040;-61
2023/07/03 09:32:42;;;;;;;5.13;1.48;;;16.50;1.00;;;;;;5093348;28;20127;-61
2023/07/03 09:35:19;;;;;;;3.53;1.35;;;16.80;1.00;;;;;;5093690;28;20479;-61
2023/07/03 09:37:58;;;;;;;2.58;1.25;;;17.00;1.00;;;;;;5093327;28;20047;-62
2023/07/03 09:40:32;;;;;;;2.33;1.05;;;17.20;1.00;;;;;;5093200;28;20071;-61
2023/07/03 09:42:59;;;;;;;3.03;1.35;;;17.30;1.00;;;;;;5093157;28;20040;-60
2023/07/03 09:45:31;;;;;;;4.78;1.27;;;17.30;1.00;;;;;;5093205;28;20044;-61
2023/07/03 09:48:00;;;;;;;5.65;1.17;;;17.40;1.00;;;;;;5093355;28;20036;-61
2023/07/03 09:50:37;;;;;;;7.72;1.58;;;17.50;1.00;;;;;;5093388;28;20047;-63
2023/07/03 09:53:03;;;;;;;4.80;1.55;;;17.50;1.00;;;;;;5093450;28;20425;-62
2023/07/03 09:55:29;;;;;;;1.77;1.15;;;17.50;1.00;;;;;;5093394;28;20074;-62
2023/07/03 09:57:55;;;;;;;3.45;1.40;;;17.40;1.00;;;;;;5093485;28;20043;-61
2023/07/03 10:00:23;;;;;;;6.20;1.60;;;17.20;1.00;;;;;;5093346;28;20043;-61
2023/07/03 10:02:57;;;;;;;2.20;1.10;;;16.90;1.00;;;;;;5093160;28;20122;-61
2023/07/03 10:05:31;;;;;;;5.97;1.60;;;17.10;1.00;;;;;;5092938;28;20043;-60
2023/07/03 10:08:02;;;;;;;4.82;1.42;;;16.60;1.00;;;;;;5093082;28;20040;-61
2023/07/03 10:10:29;;;;;;;2.15;1.10;;;16.50;1.00;;;;;;5093082;28;20036;-61
2023/07/03 10:13:12;;;;;;;5.22;1.15;;;16.40;1.00;;;;;;5093024;28;20043;-61
2023/07/03 10:15:41;;;;;;;3.17;1.00;;;16.30;1.00;;;;;;5092921;28;20044;-61
2023/07/03 10:18:19;;;;;;;3.05;1.20;;;16.30;1.00;;;;;;5092753;28;20036;-62
2023/07/03 10:20:48;;;;;;;4.70;1.00;;;16.50;1.00;;;;;;5091390;28;20105;-61
2023/07/03 10:23:28;;;;;;;1.33;0.88;;;16.70;1.00;;;;;;5092729;28;20494;-63
2023/07/03 10:26:04;;;;;;;4.78;1.30;;;17.10;1.00;;;;;;5092799;28;20044;-62
2023/07/03 10:28:37;;;;;;;3.45;1.42;;;17.10;1.00;;;;;;5092433;28;20078;-61
2023/07/03 10:31:08;;;;;;;2.72;1.30;;;17.50;1.00;;;;;;5092816;28;20044;-61
2023/07/03 10:33:45;;;;;;;;;;;17.80;1.00;;;;;;5093233;28;20032;-61
2023/07/03 10:36:18;;;;;;;4.20;1.58;;;18.10;1.00;;;;;;5092951;28;19923;-61
2023/07/03 10:39:07;;;;;;;1.48;0.82;;;18.60;1.00;;;;;;5092789;28;20089;-61
2023/07/03 10:41:51;;;;;;;2.83;1.17;;;18.10;1.00;;;;;;5095255;28;20051;-62
2023/07/03 10:44:30;;;;;;;8.00;1.40;;;18.00;1.00;;;;;;5096709;28;20052;-61
2023/07/03 10:47:01;;;;;;;2.47;1.35;;;17.60;1.00;;;;;;5096988;28;20347;-62
2023/07/03 10:49:31;;;;;;;2.80;1.17;;;17.60;1.00;;;;;;5096839;28;20036;-62
2023/07/03 10:52:17;;;;;;;8.10;1.10;;;17.50;1.00;;;;;;5096670;28;20077;-61
2023/07/03 10:55:14;;;;;;;2.38;1.23;;;17.40;1.00;;;;;;5096743;28;20052;-61
2023/07/03 10:57:55;;;;;;;3.08;0.90;;;17.50;1.00;;;;;;5096753;28;20101;-62
2023/07/03 11:00:50;;;;;;;2.20;1.20;;;17.70;1.00;;;;;;5096754;28;20063;-61
2023/07/03 11:03:34;;;;;;;7.57;1.30;;;17.90;1.00;;;;;;5064888;28;20054;-61
2023/07/03 11:06:16;;;;;;;1.55;0.80;;;18.10;1.00;;;;;;5096290;28;20047;-65
2023/07/03 11:08:54;;;;;;;2.47;0.95;;;18.40;1.00;;;;;;5096518;28;20039;-62
2023/07/03 11:11:42;;;;;;;4.30;0.68;;;18.50;1.00;;;;;;5096532;28;20364;-61
2023/07/03 11:14:18;;;;;;;3.90;1.50;;;18.60;1.00;;;;;;5096515;28;20416;-61
2023/07/03 11:17:09;;;;;;;3.10;0.90;;;18.60;1.00;;;;;;5096412;28;20081;-62
2023/07/03 11:19:40;;;;;;;;;;;18.60;1.00;;;;;;5095249;28;20044;-62
2023/07/03 11:22:33;;;;;;;2.47;1.00;;;18.60;1.00;;;;;;5095946;28;20286;-61
2023/07/03 11:25:11;;;;;;;5.15;1.10;;;18.70;1.00;;;;;;5095876;28;20048;-62
2023/07/03 11:28:03;;;;;;;3.10;1.15;;;18.30;1.00;;;;;;5096100;28;20040;-61
2023/07/03 11:30:30;;;;;;;4.32;0.98;;;18.10;1.00;;;;;;5096156;28;20036;-62
2023/07/03 11:32:57;;;;;;;1.13;0.73;;;18.00;1.00;;;;;;5094866;28;20043;-61
2023/07/03 11:35:23;;;;;;;6.68;1.13;;;17.80;1.00;;;;;;5096047;28;20070;-61
2023/07/03 11:37:58;;;;;;;4.00;1.05;;;17.70;1.00;;;;;;5095996;28;20066;-61
2023/07/03 11:40:36;;;;;;;2.15;1.17;;;17.80;1.00;;;;;;5095685;28;20119;-61
2023/07/03 11:43:22;;;;;;;4.20;1.25;;;17.80;1.00;;;;;;5095911;28;20043;-61
2023/07/03 11:45:57;;;;;;;3.35;0.90;;;17.90;1.00;;;;;;5095857;28;20123;-62
2023/07/03 11:48:37;;;;;;;3.42;1.05;;;17.90;1.00;;;;;;5095736;28;20089;-61
2023/07/03 11:51:03;;;;;;;;;;;18.00;1.00;;;;;;5096235;28;20042;-62
2023/07/03 11:53:36;;;;;;;2.92;0.60;;;18.20;1.00;;;;;;5094705;28;20003;-62
2023/07/03 11:56:10;;;;;;;2.42;1.13;;;18.40;1.00;;;;;;5095731;28;20043;-62
2023/07/03 11:58:37;;;;;;;1.60;0.95;;;18.60;1.00;;;;;;5094062;28;20047;-62
2023/07/03 12:01:21;;;;;;;1.98;0.90;;;19.10;1.00;;;;;;5095594;28;20051;-61
2023/07/03 12:04:02;;;;;;;5.07;0.88;;;19.00;1.00;;;;;;5095477;28;20392;-62
2023/07/03 12:06:42;;;;;;;3.60;1.17;;;18.90;1.00;;;;;;5095477;28;20497;-62
2023/07/03 12:09:32;;;;;;;2.22;1.00;;;18.80;1.00;;;;;;5095153;28;20046;-61
2023/07/03 12:12:00;;;;;;;2.92;0.60;;;18.40;1.00;;;;;;5095501;28;20044;-62
2023/07/03 12:14:46;;;;;;;2.72;0.95;;;18.30;1.00;;;;;;5095538;28;20044;-61
2023/07/03 12:17:32;;;;;;;6.65;1.38;;;18.10;1.00;;;;;;5095254;28;20062;-61
2023/07/03 12:20:17;;;;;;;1.73;0.93;;;17.90;1.00;;;;;;5095278;28;20040;-61
2023/07/03 12:22:45;;;;;;;2.25;0.63;;;17.70;1.00;;;;;;5095011;28;20044;-65
2023/07/03 12:25:17;;;;;;;2.92;1.25;;;17.60;1.00;;;;;;5094730;28;20044;-61
2023/07/03 12:27:43;;;;;;;2.03;0.90;;;18.30;1.00;;;;;;5095106;28;20040;-62
2023/07/03 12:30:11;;;;;;;1.70;0.80;;;17.50;1.00;;;;;;5095055;28;20032;-62
2023/07/03 12:32:37;;;;;;;5.15;1.05;;;17.50;1.00;;;;;;5094707;28;20036;-62
2023/07/03 12:35:10;;;;;;;1.98;0.82;;;17.50;1.00;;;;;;5095291;28;20043;-62
2023/07/03 12:37:44;;;;;;;2.33;0.80;;;17.60;1.00;;;;;;5094897;28;20078;-62
2023/07/03 12:40:11;;;;;;;4.18;0.95;;;17.70;1.00;;;;;;5076536;28;20048;-62
2023/07/03 12:42:37;;;;;;;4.82;0.95;;;17.70;1.00;;;;;;5094742;28;20036;-65
2023/07/03 12:45:14;;;;;;;5.22;1.00;;;17.70;1.00;;;;;;5094375;28;20044;-65
2023/07/03 12:47:40;;;;;;;4.63;1.08;;;17.70;1.00;;;;;;5094740;28;20047;-62
2023/07/03 12:50:07;;;;;;;3.10;1.15;;;17.60;1.00;;;;;;5094700;28;20032;-62
2023/07/03 12:52:33;;;;;;;4.30;1.13;;;17.50;1.00;;;;;;5094340;28;20399;-62
2023/07/03 12:55:01;;;;;;;5.22;1.02;;;17.70;1.00;;;;;;5094555;28;20142;-62
2023/07/03 12:57:30;;;;;;;7.82;1.10;;;17.70;1.00;;;;;;5094450;28;20039;-62
2023/07/03 12:59:57;;;;;;;3.20;1.33;;;17.20;1.00;;;;;;5094264;28;20046;-62
2023/07/03 13:02:27;;;;;;;1.90;0.80;;;17.20;1.00;;;;;;5094431;28;20040;-62
2023/07/03 13:04:56;;;;;;;2.37;1.03;;;17.10;1.00;;;;;;5093308;28;20105;-62
2023/07/03 13:07:22;;;;;;;1.42;0.85;;;17.00;1.00;;;;;;5094318;28;20032;-62
2023/07/03 13:09:48;;;;;;;1.25;0.90;;;17.00;1.00;;;;;;5094268;28;20036;-62